Time;durP1;ratioP1;P1;durP2;ratioP2;P2;SDS_P1;SDS_P2;PMS_P1;PMS_P2;Temp;Humidity;BMP_temperature;BMP_pressure;BME280_temperature;BME280_humidity;BME280_pressure;Samples;Min_cycle;Max_cycle;Signal;HPM_P1;HPM_P2
2023/06/01 00:01:46;;;;;;;16.38;6.65;;;;;;;17.09;72.94;98742.34;5092433;28;20082;-45
2023/06/01 00:04:13;;;;;;;11.20;5.60;;;;;;;16.97;73.67;98739.75;5072685;28;20402;-45
2023/06/01 00:06:39;;;;;;;11.98;5.53;;;;;;;17.03;73.18;98735.34;5070782;28;20028;-44
2023/06/01 00:09:06;;;;;;;13.98;5.97;;;;;;;17.10;73.28;98735.19;5088567;28;20517;-45
2023/06/01 00:11:31;;;;;;;16.50;5.25;;;;;;;17.24;72.68;98733.81;5092040;28;20031;-44
2023/06/01 00:13:57;;;;;;;27.42;7.35;;;;;;;17.45;71.89;98728.81;5091872;28;20024;-44
2023/06/01 00:16:23;;;;;;;12.00;5.40;;;;;;;17.65;70.83;98737.06;5083796;28;20037;-45
2023/06/01 00:18:51;;;;;;;19.88;7.18;;;;;;;17.77;70.30;98735.09;5091962;28;20494;-45
2023/06/01 00:21:17;;;;;;;15.80;6.38;;;;;;;17.72;70.07;98732.34;5091875;28;20024;-45
2023/06/01 00:23:42;;;;;;;17.30;6.18;;;;;;;17.70;70.52;98734.44;5092219;28;20032;-44
2023/06/01 00:26:08;;;;;;;12.50;6.32;;;;;;;17.74;70.08;98727.59;5091898;28;20076;-45
2023/06/01 00:28:34;;;;;;;10.10;5.68;;;;;;;17.75;70.26;98725.78;5070397;28;20012;-45
2023/06/01 00:31:00;;;;;;;21.00;8.43;;;;;;;17.79;70.38;98726.88;5088767;28;20032;-45
2023/06/01 00:33:26;;;;;;;15.27;6.15;;;;;;;18.01;70.08;98731.41;5070373;28;20025;-45
2023/06/01 00:35:52;;;;;;;13.77;6.50;;;;;;;18.05;68.99;98724.53;5107020;28;20048;-44
2023/06/01 00:38:17;;;;;;;14.40;5.70;;;;;;;17.86;68.94;98727.53;5112388;28;20516;-45
2023/06/01 00:40:43;;;;;;;15.60;6.40;;;;;;;17.51;69.81;98730.50;5093815;28;20020;-45
2023/06/01 00:43:09;;;;;;;21.92;6.78;;;;;;;17.38;71.07;98726.31;5112115;28;20027;-45
2023/06/01 00:45:37;;;;;;;18.58;6.82;;;;;;;17.47;71.02;98722.22;5112076;28;20059;-45
2023/06/01 00:48:04;;;;;;;13.38;5.90;;;;;;;17.58;69.96;98731.91;5112048;28;20085;-45
2023/06/01 00:50:30;;;;;;;15.52;6.43;;;;;;;17.42;70.16;98722.13;5093711;28;20027;-45
2023/06/01 00:52:58;;;;;;;21.42;7.55;;;;;;;17.36;70.86;98718.63;5111979;28;20020;-45
2023/06/01 00:55:24;;;;;;;14.18;6.53;;;;;;;17.60;70.46;98730.88;5110643;28;20439;-45
2023/06/01 00:57:50;;;;;;;23.75;6.45;;;;;;;17.98;68.86;98723.94;5111882;28;20026;-45
2023/06/01 01:00:17;;;;;;;24.48;6.00;;;;;;;18.05;66.46;98717.41;5111912;28;20528;-45
2023/06/01 01:02:51;;;;;;;17.85;7.70;;;;;;;17.78;67.14;98723.41;5093617;28;20023;-44
2023/06/01 01:05:17;;;;;;;17.08;6.32;;;;;;;17.61;68.55;98730.63;5111920;28;20072;-45
2023/06/01 01:08:19;;;;;;;16.95;6.65;;;;;;;17.39;69.18;98724.50;5111843;28;20027;-45
2023/06/01 01:11:15;;;;;;;16.05;6.63;;;;;;;17.19;70.56;98728.44;5111872;28;20016;-45
2023/06/01 01:13:45;;;;;;;21.63;6.85;;;;;;;17.26;70.27;98726.41;5104770;28;20063;-45
2023/06/01 01:16:36;;;;;;;15.82;6.00;;;;;;;17.13;70.28;98729.41;5111806;28;20020;-44
2023/06/01 01:19:26;;;;;;;10.45;5.68;;;;;;;17.03;71.14;98730.03;5089882;28;20584;-45
2023/06/01 01:22:19;;;;;;;13.80;6.22;;;;;;;17.07;71.25;98725.06;5111837;28;20489;-45
2023/06/01 01:25:03;;;;;;;6.68;5.03;;;;;;;17.11;70.90;98731.50;5112057;28;20499;-45
2023/06/01 01:27:59;;;;;;;18.00;6.03;;;;;;;17.08;70.54;98730.13;5095795;28;20512;-45
2023/06/01 01:30:28;;;;;;;18.08;6.53;;;;;;;17.04;70.76;98730.84;5080355;28;20096;-45
2023/06/01 01:32:57;;;;;;;20.40;6.45;;;;;;;16.92;70.71;98736.22;5097016;28;20024;-45
2023/06/01 01:35:28;;;;;;;21.40;9.32;;;;;;;16.81;71.26;98731.78;5115132;28;20406;-44
2023/06/01 01:37:54;;;;;;;14.80;7.10;;;;;;;16.73;71.43;98740.91;5097020;28;20042;-45
2023/06/01 01:40:21;;;;;;;13.18;6.38;;;;;;;16.64;71.94;98729.09;5097112;28;20024;-45
2023/06/01 01:42:48;;;;;;;24.40;6.85;;;;;;;16.49;71.82;98730.44;5115255;28;20015;-45
2023/06/01 01:45:15;;;;;;;17.05;6.72;;;;;;;16.33;72.56;98733.84;5115142;28;20026;-44
2023/06/01 01:48:16;;;;;;;15.45;5.75;;;;;;;16.18;73.24;98735.16;5097370;28;20393;-45
2023/06/01 01:50:58;;;;;;;28.20;6.38;;;;;;;16.08;73.70;98736.81;5115057;28;20078;-47
2023/06/01 01:53:26;;;;;;;20.85;8.55;;;;;;;16.04;73.63;98736.47;5113632;28;20096;-47
2023/06/01 01:55:56;;;;;;;20.92;6.15;;;;;;;15.85;74.11;98735.03;5114989;28;20080;-47
2023/06/01 01:58:23;;;;;;;16.02;7.60;;;;;;;15.77;74.58;98734.34;5115158;28;20089;-47
2023/06/01 02:00:51;;;;;;;14.88;6.78;;;;;;;15.68;74.86;98742.84;5096826;28;20031;-47
2023/06/01 02:03:17;;;;;;;37.88;26.48;;;;;;;15.76;75.95;98740.66;5114830;28;20102;-47
2023/06/01 02:05:44;;;;;;;19.23;11.48;;;;;;;16.07;74.65;98741.28;5114776;28;20353;-47
2023/06/01 02:08:10;;;;;;;16.38;6.75;;;;;;;16.12;73.34;98745.91;5114702;28;20031;-47
2023/06/01 02:10:37;;;;;;;22.00;5.95;;;;;;;15.90;73.69;98748.38;5114567;28;20098;-47
2023/06/01 02:13:03;;;;;;;28.38;9.38;;;;;;;15.88;74.92;98750.44;5096294;28;20504;-47
2023/06/01 02:15:29;;;;;;;16.70;6.55;;;;;;;15.98;74.21;98753.31;5114584;28;20103;-47
2023/06/01 02:17:54;;;;;;;13.88;7.10;;;;;;;15.83;74.42;98748.47;5113192;28;20142;-47
2023/06/01 02:20:20;;;;;;;24.83;6.80;;;;;;;15.68;75.36;98748.94;5114453;28;20066;-47
2023/06/01 02:22:46;;;;;;;14.82;6.10;;;;;;;15.62;75.78;98744.56;5114457;28;20020;-47
2023/06/01 02:25:11;;;;;;;21.73;6.40;;;;;;;15.61;75.87;98744.78;5114386;28;20027;-47
2023/06/01 02:27:37;;;;;;;11.05;4.72;;;;;;;15.75;75.48;98744.38;5114364;28;20031;-47
2023/06/01 02:30:06;;;;;;;10.27;5.05;;;;;;;15.83;74.68;98739.75;5112968;28;20027;-47
2023/06/01 02:32:32;;;;;;;11.02;5.00;;;;;;;15.84;74.43;98744.00;5114100;28;20024;-47
2023/06/01 02:34:58;;;;;;;10.82;5.53;;;;;;;15.82;74.16;98741.59;5102394;28;20517;-47
2023/06/01 02:37:24;;;;;;;24.15;18.85;;;;;;;15.80;74.18;98733.09;5075500;28;20033;-47
2023/06/01 02:39:50;;;;;;;25.67;22.10;;;;;;;15.76;74.08;98731.94;5058996;28;20155;-47
2023/06/01 02:42:16;;;;;;;70.35;63.25;;;;;;;15.63;73.97;98730.28;5075470;28;20097;-47
2023/06/01 02:44:41;;;;;;;31.55;18.50;;;;;;;15.49;74.48;98732.41;5093516;28;20028;-47
2023/06/01 02:47:07;;;;;;;21.50;7.80;;;;;;;15.51;75.02;98730.34;5093526;28;20024;-47
2023/06/01 02:49:33;;;;;;;15.65;7.90;;;;;;;15.66;74.87;98721.13;5093547;28;20024;-47
2023/06/01 02:51:58;;;;;;;22.48;10.55;;;;;;;15.77;74.45;98721.13;5075334;28;20032;-47
2023/06/01 02:54:24;;;;;;;11.18;7.68;;;;;;;15.91;74.08;98720.84;5093330;28;20020;-47
2023/06/01 02:56:50;;;;;;;15.88;6.93;;;;;;;16.07;73.15;98722.75;5093417;28;20016;-47
2023/06/01 02:59:15;;;;;;;17.30;6.03;;;;;;;16.17;72.16;98722.16;5075119;28;20120;-47
2023/06/01 03:01:41;;;;;;;13.57;5.72;;;;;;;16.02;71.25;98721.84;5075034;28;20028;-47
2023/06/01 03:04:07;;;;;;;11.68;5.35;;;;;;;15.78;72.14;98730.66;5093277;28;20040;-47
2023/06/01 03:06:37;;;;;;;10.88;5.32;;;;;;;15.55;72.98;98731.47;5093390;28;20023;-47
2023/06/01 03:09:03;;;;;;;11.60;6.57;;;;;;;15.48;74.19;98727.34;5074926;28;20383;-47
2023/06/01 03:11:29;;;;;;;12.63;5.45;;;;;;;15.46;74.56;98726.75;5074854;28;20097;-47
2023/06/01 03:13:56;;;;;;;19.35;6.10;;;;;;;15.57;74.40;98729.41;5074829;28;20040;-47
2023/06/01 03:16:23;;;;;;;14.60;5.30;;;;;;;15.65;74.40;98728.22;5093019;28;20494;-47
2023/06/01 03:18:49;;;;;;;11.43;6.07;;;;;;;15.56;74.35;98726.97;5092978;28;20059;-47
2023/06/01 03:21:16;;;;;;;9.20;5.53;;;;;;;15.48;74.28;98724.69;5074629;28;20458;-47
2023/06/01 03:23:43;;;;;;;20.83;6.63;;;;;;;15.41;75.10;98724.78;5092870;28;20024;-47
2023/06/01 03:26:12;;;;;;;13.55;5.65;;;;;;;15.48;75.00;98719.41;5092694;28;20099;-47
2023/06/01 03:28:38;;;;;;;8.32;5.53;;;;;;;15.45;74.22;98723.28;5074701;28;20474;-47
2023/06/01 03:31:05;;;;;;;549.53;495.20;;;;;;;15.21;74.82;98724.34;5074475;28;20930;-47
2023/06/01 03:33:30;;;;;;;60.35;43.75;;;;;;;15.02;75.52;98731.56;5092631;28;20055;-47
2023/06/01 03:35:57;;;;;;;48.35;35.55;;;;;;;14.95;76.55;98723.72;5109287;28;20051;-47
2023/06/01 03:38:23;;;;;;;28.70;25.45;;;;;;;15.12;76.32;98726.53;5094683;28;20062;-47
2023/06/01 03:40:49;;;;;;;23.35;17.02;;;;;;;15.28;76.24;98725.84;5094643;28;20032;-47
2023/06/01 03:43:14;;;;;;;29.60;14.07;;;;;;;15.46;75.74;98718.81;5112878;28;20077;-47
2023/06/01 03:45:40;;;;;;;23.52;9.88;;;;;;;15.63;75.06;98721.56;5113052;28;20031;-47
2023/06/01 03:48:06;;;;;;;18.85;8.98;;;;;;;15.85;74.23;98719.94;5112822;28;20421;-47
2023/06/01 03:50:31;;;;;;;16.38;6.85;;;;;;;15.95;73.79;98722.78;5112316;28;20431;-47
2023/06/01 03:52:57;;;;;;;27.40;20.58;;;;;;;16.09;72.68;98725.19;5112674;28;20016;-47
2023/06/01 03:55:23;;;;;;;66.88;61.00;;;;;;;16.04;72.37;98722.44;5094380;28;20030;-49
2023/06/01 03:57:49;;;;;;;22.90;16.95;;;;;;;16.00;72.54;98724.75;5094378;28;20511;-47
2023/06/01 04:00:17;;;;;;;12.82;7.22;;;;;;;15.98;72.30;98721.53;5094232;28;20047;-47
2023/06/01 04:02:53;;;;;;;14.65;8.63;;;;;;;15.89;71.78;98730.88;5112593;28;20549;-47
2023/06/01 04:05:19;;;;;;;;;;;;;;;15.85;71.86;98735.03;5111641;28;20512;-47
2023/06/01 04:07:46;;;;;;;11.60;5.85;;;;;;;15.68;72.32;98730.41;5112441;28;19918;-47
2023/06/01 04:10:13;;;;;;;13.82;6.28;;;;;;;15.57;73.31;98731.22;5094141;28;20115;-47
2023/06/01 04:12:41;;;;;;;20.48;11.90;;;;;;;15.66;73.31;98736.97;5112388;28;20028;-47
2023/06/01 04:15:08;;;;;;;12.32;7.15;;;;;;;15.55;73.36;98739.41;5112215;28;20028;-47
2023/06/01 04:17:36;;;;;;;8.25;4.82;;;;;;;15.45;73.82;98741.00;5094145;28;20015;-47
2023/06/01 04:20:06;;;;;;;12.93;6.47;;;;;;;15.46;74.48;98746.06;5112281;28;20477;-47
2023/06/01 04:22:32;;;;;;;18.00;7.53;;;;;;;15.49;74.44;98742.16;5094556;28;20019;-47
2023/06/01 04:24:58;;;;;;;13.57;6.20;;;;;;;15.60;74.47;98743.19;5112299;28;20110;-47
2023/06/01 04:27:24;;;;;;;13.85;5.90;;;;;;;15.96;73.43;98742.94;5093953;28;20115;-47
2023/06/01 04:29:51;;;;;;;12.40;5.28;;;;;;;16.53;71.34;98744.81;5110951;28;20028;-47
2023/06/01 04:32:21;;;;;;;13.57;5.32;;;;;;;16.95;69.14;98739.19;5112244;28;20114;-47
2023/06/01 04:34:49;;;;;;;13.77;5.88;;;;;;;17.42;67.83;98735.38;5111983;28;20070;-47
2023/06/01 04:37:24;;;;;;;9.90;5.40;;;;;;;17.78;65.71;98733.22;5110771;28;20570;-47
2023/06/01 04:39:51;;;;;;;15.75;5.45;;;;;;;17.84;65.50;98736.78;5112223;28;20050;-47
2023/06/01 04:42:18;;;;;;;13.60;5.10;;;;;;;17.99;64.55;98737.00;5112110;28;20031;-47
2023/06/01 04:44:49;;;;;;;13.15;5.20;;;;;;;17.85;64.42;98738.38;5111993;28;20027;-47
2023/06/01 04:47:20;;;;;;;16.13;5.20;;;;;;;17.76;65.13;98735.31;5112329;28;20077;-47
2023/06/01 04:49:46;;;;;;;14.50;5.20;;;;;;;17.97;64.70;98728.47;5112167;28;20483;-47
2023/06/01 04:52:12;;;;;;;8.65;5.63;;;;;;;18.19;63.57;98730.28;5093975;28;20043;-47
2023/06/01 04:54:38;;;;;;;11.45;5.88;;;;;;;18.59;62.76;98729.09;5110640;28;20401;-47
2023/06/01 04:57:06;;;;;;;10.70;5.25;;;;;;;19.55;60.56;98737.03;5110624;28;20027;-47
2023/06/01 04:59:32;;;;;;;20.75;6.10;;;;;;;20.64;57.47;98740.97;5111947;28;20102;-47
2023/06/01 05:01:59;;;;;;;22.27;5.85;;;;;;;21.44;53.79;98740.44;5113697;28;20027;-45
2023/06/01 05:04:24;;;;;;;10.98;8.68;;;;;;;21.47;52.66;98738.03;5116287;28;20378;-45
2023/06/01 05:06:50;;;;;;;14.75;5.65;;;;;;;21.25;52.28;98743.66;5116003;28;20038;-44
2023/06/01 05:09:18;;;;;;;11.77;4.63;;;;;;;21.26;52.80;98737.22;5114599;28;20020;-44
2023/06/01 05:11:43;;;;;;;24.45;6.07;;;;;;;21.94;51.69;98738.69;5115778;28;20458;-44
2023/06/01 05:14:09;;;;;;;27.55;6.10;;;;;;;22.80;49.95;98741.97;5114404;28;20036;-45
2023/06/01 05:16:35;;;;;;;23.38;5.93;;;;;;;23.61;47.44;98742.34;5114419;28;20040;-45
2023/06/01 05:19:01;;;;;;;11.50;4.60;;;;;;;24.11;45.69;98742.84;5115745;28;20493;-45
2023/06/01 05:21:27;;;;;;;10.30;5.05;;;;;;;24.48;44.13;98741.25;5097491;28;20059;-45
2023/06/01 05:23:53;;;;;;;15.55;5.38;;;;;;;24.61;43.81;98747.00;5114301;28;20095;-45
2023/06/01 05:26:19;;;;;;;12.38;4.53;;;;;;;24.92;43.20;98750.03;5115567;28;20037;-45
2023/06/01 05:28:44;;;;;;;11.27;4.70;;;;;;;24.96;42.43;98750.25;5097586;28;20046;-45
2023/06/01 05:31:10;;;;;;;15.00;5.18;;;;;;;25.17;42.74;98745.31;5097080;28;20488;-45
2023/06/01 05:33:36;;;;;;;16.92;5.68;;;;;;;25.89;41.15;98744.81;5115394;28;20062;-44
2023/06/01 05:36:02;;;;;;;12.55;4.85;;;;;;;26.45;40.16;98742.84;5115132;28;20090;-45
2023/06/01 05:38:28;;;;;;;13.32;5.30;;;;;;;27.07;39.20;98736.84;5115655;28;20585;-45
2023/06/01 05:40:54;;;;;;;14.25;4.85;;;;;;;27.74;37.71;98735.09;5097200;28;20119;-45
2023/06/01 05:43:20;;;;;;;18.45;5.53;;;;;;;27.82;36.96;98739.72;5080343;28;20397;-45
2023/06/01 05:45:45;;;;;;;36.35;6.47;;;;;;;28.00;36.93;98743.28;5115184;28;20055;-45
2023/06/01 05:48:13;;;;;;;20.83;6.35;;;;;;;28.74;36.94;98738.94;5113762;28;20049;-45
2023/06/01 05:50:40;;;;;;;19.52;5.25;;;;;;;29.66;35.79;98739.31;5115359;28;20600;-45
2023/06/01 05:53:07;;;;;;;16.38;4.75;;;;;;;30.55;33.17;98726.84;5114920;28;20481;-45
2023/06/01 05:55:32;;;;;;;10.73;5.30;;;;;;;31.01;31.54;98728.50;5114934;28;20015;-45
2023/06/01 05:57:58;;;;;;;15.10;5.63;;;;;;;31.42;31.09;98720.53;5114904;28;20027;-45
2023/06/01 06:00:24;;;;;;;16.65;5.88;;;;;;;31.83;30.54;98721.47;5113602;28;20027;-45
2023/06/01 06:02:50;;;;;;;31.60;5.97;;;;;;;32.50;30.17;98718.38;5114785;28;20024;-45
2023/06/01 06:05:16;;;;;;;30.08;5.47;;;;;;;33.09;28.93;98725.06;5062984;28;20039;-45
2023/06/01 06:07:41;;;;;;;29.00;5.80;;;;;;;33.26;28.68;98719.28;5096489;28;20016;-45
2023/06/01 06:10:08;;;;;;;22.98;7.45;;;;;;;33.34;28.53;98720.25;5114702;28;20525;-46
2023/06/01 06:12:33;;;;;;;12.52;5.82;;;;;;;33.82;27.88;98713.63;5114159;28;20392;-45
2023/06/01 06:14:59;;;;;;;13.02;5.05;;;;;;;34.20;27.43;98714.06;5096424;28;20135;-46
2023/06/01 06:17:25;;;;;;;13.60;4.57;;;;;;;34.72;26.95;98709.28;5114594;28;20487;-46
2023/06/01 06:19:51;;;;;;;13.43;4.97;;;;;;;35.12;25.72;98703.38;5114534;28;20051;-46
2023/06/01 06:22:16;;;;;;;21.70;5.30;;;;;;;35.31;25.54;98704.47;5114468;28;20031;-45
2023/06/01 06:24:42;;;;;;;11.45;4.60;;;;;;;35.22;25.62;98701.22;5114380;28;20040;-45
2023/06/01 06:27:11;;;;;;;11.93;5.28;;;;;;;35.18;25.99;98698.44;5114408;28;20097;-46
2023/06/01 06:29:37;;;;;;;13.77;4.97;;;;;;;35.85;25.23;98703.34;5114389;28;20059;-46
2023/06/01 06:32:02;;;;;;;17.15;5.57;;;;;;;36.28;24.65;98700.41;5114498;28;20112;-46
2023/06/01 06:34:35;;;;;;;13.45;4.90;;;;;;;36.18;24.50;98702.66;5113965;28;20545;-46
2023/06/01 06:37:06;;;;;;;19.48;5.63;;;;;;;36.35;24.43;98695.81;5114415;28;20070;-46
2023/06/01 06:39:32;;;;;;;14.95;4.97;;;;;;;37.01;24.21;98700.84;5114211;28;20024;-46
2023/06/01 06:41:59;;;;;;;16.35;5.80;;;;;;;37.62;23.15;98704.09;5095715;28;20397;-46
2023/06/01 06:44:24;;;;;;;18.85;5.50;;;;;;;37.92;22.23;98705.81;5114015;28;20031;-46
2023/06/01 06:46:50;;;;;;;14.40;5.20;;;;;;;38.04;22.31;98707.44;5078846;28;20032;-46
2023/06/01 06:49:18;;;;;;;20.25;5.70;;;;;;;37.98;21.88;98705.06;5113872;28;20020;-46
2023/06/01 06:51:44;;;;;;;20.67;5.10;;;;;;;37.98;22.16;98704.28;5113887;28;20517;-46
2023/06/01 06:54:10;;;;;;;19.45;5.65;;;;;;;38.29;21.72;98702.88;5113783;28;20023;-46
2023/06/01 06:56:36;;;;;;;11.63;4.85;;;;;;;38.62;21.40;98709.28;5113810;28;20024;-46
2023/06/01 06:59:02;;;;;;;15.43;4.82;;;;;;;38.50;21.78;98712.34;5113755;28;20370;-46
2023/06/01 07:01:27;;;;;;;18.55;4.93;;;;;;;38.36;21.47;98711.13;5113758;28;20055;-46
2023/06/01 07:03:53;;;;;;;21.10;5.75;;;;;;;38.33;22.00;98708.38;5113730;28;20015;-46
2023/06/01 07:06:20;;;;;;;22.83;5.82;;;;;;;38.45;21.96;98715.47;5113585;28;20447;-46
2023/06/01 07:08:46;;;;;;;32.42;6.63;;;;;;;38.51;22.30;98716.66;5113557;28;20509;-46
2023/06/01 07:11:11;;;;;;;16.85;5.32;;;;;;;38.82;21.95;98720.69;5095311;28;20027;-46
2023/06/01 07:13:37;;;;;;;12.77;5.05;;;;;;;38.99;21.66;98716.41;5112048;28;20020;-46
2023/06/01 07:16:05;;;;;;;20.02;4.85;;;;;;;38.90;21.38;98716.00;5113427;28;20084;-46
2023/06/01 07:18:30;;;;;;;17.35;5.10;;;;;;;38.90;21.57;98716.00;5112090;28;20107;-46
2023/06/01 07:20:58;;;;;;;12.23;4.40;;;;;;;38.57;21.50;98712.38;5113510;28;20111;-46
2023/06/01 07:23:23;;;;;;;13.15;4.80;;;;;;;38.28;22.24;98725.22;5113114;28;20019;-46
2023/06/01 07:25:49;;;;;;;12.77;4.55;;;;;;;37.97;22.76;98724.63;5094552;28;20042;-46
2023/06/01 07:28:15;;;;;;;12.02;5.53;;;;;;;37.56;23.16;98716.53;5095333;28;20024;-46
2023/06/01 07:30:41;;;;;;;10.02;4.70;;;;;;;36.49;24.17;98719.81;5112111;28;20031;-46
2023/06/01 07:33:07;;;;;;;11.65;4.88;;;;;;;35.61;25.24;98718.97;5113038;28;20026;-46
2023/06/01 07:35:33;;;;;;;13.13;5.00;;;;;;;35.18;25.96;98723.78;5111553;28;20050;-46
2023/06/01 07:38:00;;;;;;;15.68;4.88;;;;;;;35.04;26.31;98712.59;5112924;28;20440;-46
2023/06/01 07:40:26;;;;;;;11.45;4.95;;;;;;;35.23;26.25;98722.66;5112984;28;20024;-46
2023/06/01 07:42:51;;;;;;;17.08;5.15;;;;;;;35.59;26.24;98720.50;5111596;28;20027;-46
2023/06/01 07:45:17;;;;;;;7.35;4.20;;;;;;;35.71;25.96;98722.28;5111531;28;20108;-46
2023/06/01 07:47:43;;;;;;;8.20;3.97;;;;;;;36.14;25.58;98718.19;5111858;28;20028;-46
2023/06/01 07:50:09;;;;;;;34.03;5.80;;;;;;;36.76;24.92;98715.06;5112767;28;20027;-46
2023/06/01 07:52:35;;;;;;;8.25;4.43;;;;;;;37.10;24.39;98719.66;5094615;28;20024;-46
2023/06/01 07:55:00;;;;;;;9.38;4.18;;;;;;;37.65;23.73;98719.75;5094357;28;20532;-46
2023/06/01 07:57:26;;;;;;;5.70;4.13;;;;;;;38.47;22.93;98716.63;5112905;28;20020;-46
2023/06/01 07:59:52;;;;;;;11.98;4.40;;;;;;;38.61;22.39;98713.19;5112827;28;20024;-46
2023/06/01 08:02:20;;;;;;;9.48;4.68;;;;;;;39.06;22.35;98712.88;5112899;28;20027;-46
2023/06/01 08:04:47;;;;;;;8.15;4.55;;;;;;;39.35;21.33;98705.44;5112531;28;20059;-46
2023/06/01 08:07:15;;;;;;;11.98;4.72;;;;;;;39.83;21.19;98704.22;5112383;28;20047;-46
2023/06/01 08:09:42;;;;;;;12.45;4.43;;;;;;;40.42;20.67;98707.16;5112361;28;20102;-49
2023/06/01 08:12:08;;;;;;;11.35;4.30;;;;;;;41.12;20.29;98703.56;5112634;28;20016;-48
2023/06/01 08:14:34;;;;;;;7.68;4.93;;;;;;;41.41;19.69;98704.13;5094065;28;20407;-49
2023/06/01 08:17:02;;;;;;;11.50;5.20;;;;;;;41.16;20.00;98704.31;5112355;28;20030;-49
2023/06/01 08:19:28;;;;;;;14.85;5.25;;;;;;;40.39;19.87;98696.97;5112336;28;20096;-49
2023/06/01 08:21:54;;;;;;;7.72;4.90;;;;;;;38.44;22.55;98713.91;5112256;28;20493;-49
2023/06/01 08:24:22;;;;;;;9.73;5.63;;;;;;;37.28;23.35;98712.41;5112320;28;20031;-49
2023/06/01 08:26:48;;;;;;;8.65;5.05;;;;;;;37.34;23.73;98710.13;5112220;28;20022;-50
2023/06/01 08:29:14;;;;;;;10.40;5.10;;;;;;;38.73;22.91;98701.84;5094094;28;20042;-49
2023/06/01 08:31:40;;;;;;;8.95;4.65;;;;;;;39.60;21.60;98696.41;5112362;28;20020;-49
2023/06/01 08:34:05;;;;;;;14.25;4.80;;;;;;;40.29;20.95;98695.81;5111877;28;20019;-49
2023/06/01 08:36:31;;;;;;;7.13;5.50;;;;;;;41.13;20.02;98692.16;5098569;28;20035;-49
2023/06/01 08:38:57;;;;;;;7.85;5.10;;;;;;;41.76;19.57;98693.97;5118925;28;20020;-49
2023/06/01 08:41:48;;;;;;;9.35;4.95;;;;;;;42.29;19.33;98697.28;5118936;28;20420;-49
2023/06/01 08:44:18;;;;;;;7.78;5.05;;;;;;;42.49;18.49;98691.91;5101304;28;20558;-49
2023/06/01 08:46:43;;;;;;;7.93;4.97;;;;;;;42.68;18.56;98693.19;5118904;28;20023;-49
2023/06/01 08:49:14;;;;;;;18.98;5.38;;;;;;;42.57;18.47;98687.84;5118842;28;20024;-50
2023/06/01 08:51:42;;;;;;;27.15;24.17;;;;;;;42.79;18.72;98684.78;5119137;28;20386;-49
2023/06/01 08:54:09;;;;;;;17.90;8.93;;;;;;;42.65;17.99;98688.53;5119024;28;20059;-49
2023/06/01 08:56:36;;;;;;;13.82;7.00;;;;;;;42.45;18.21;98685.66;5117437;28;20032;-49
2023/06/01 08:59:03;;;;;;;16.63;5.38;;;;;;;42.24;17.71;98686.69;5117490;28;20042;-49
2023/06/01 09:01:29;;;;;;;7.63;4.50;;;;;;;42.01;17.80;98688.13;5083612;28;20027;-49
2023/06/01 09:03:55;;;;;;;13.88;5.43;;;;;;;42.27;17.83;98691.41;5083766;28;20030;-49
2023/06/01 09:06:21;;;;;;;10.80;4.55;;;;;;;42.16;17.65;98688.78;5118719;28;20027;-49
2023/06/01 09:08:47;;;;;;;18.52;5.43;;;;;;;42.45;17.27;98688.41;5118692;28;20082;-49
2023/06/01 09:11:13;;;;;;;8.43;3.80;;;;;;;42.40;17.08;98686.09;5118691;28;20031;-49
2023/06/01 09:13:40;;;;;;;7.50;3.70;;;;;;;42.29;16.67;98686.25;5118587;28;20438;-49
2023/06/01 09:16:06;;;;;;;7.30;3.47;;;;;;;42.23;16.78;98683.16;5118641;28;20485;-50
2023/06/01 09:18:32;;;;;;;17.33;4.35;;;;;;;42.42;16.51;98683.69;5118955;28;20102;-49
2023/06/01 09:21:18;;;;;;;14.00;4.00;;;;;;;42.78;16.39;98675.69;5118511;28;20435;-49
2023/06/01 09:23:44;;;;;;;19.85;4.35;;;;;;;43.04;16.06;98679.63;5118060;28;20047;-49
2023/06/01 09:26:11;;;;;;;17.33;4.20;;;;;;;43.08;15.60;98671.28;5118804;28;20024;-49
2023/06/01 09:28:56;;;;;;;8.95;4.32;;;;;;;42.89;15.48;98672.81;5118515;28;20385;-49
2023/06/01 09:31:45;;;;;;;8.35;3.55;;;;;;;42.98;15.64;98664.75;5118716;28;20173;-50
2023/06/01 09:34:18;;;;;;;5.95;2.72;;;;;;;43.00;15.19;98667.09;5084136;28;20078;-49
2023/06/01 09:36:45;;;;;;;14.40;3.75;;;;;;;43.04;15.84;98665.81;5118490;28;20073;-49
2023/06/01 09:39:16;;;;;;;12.25;3.80;;;;;;;42.55;15.88;98654.38;5118428;28;20111;-49
2023/06/01 09:41:53;;;;;;;18.38;5.05;;;;;;;42.66;15.69;98659.72;5117148;28;20467;-49
2023/06/01 09:44:24;;;;;;;11.80;3.72;;;;;;;42.86;15.96;98657.06;5118594;28;20035;-49
2023/06/01 09:46:58;;;;;;;12.10;4.38;;;;;;;42.02;16.38;98644.84;5115750;28;20028;-50
2023/06/01 09:49:30;;;;;;;15.38;4.30;;;;;;;42.06;16.13;98651.88;5115399;28;20393;-50
2023/06/01 09:52:05;;;;;;;17.98;4.93;;;;;;;42.45;17.02;98647.03;5115165;28;20111;-49
2023/06/01 09:54:38;;;;;;;13.43;4.60;;;;;;;42.68;16.49;98655.34;5115004;28;20485;-49
2023/06/01 09:57:04;;;;;;;;;;;;;;;43.06;16.57;98646.84;5115539;28;20186;-49
2023/06/01 09:59:38;;;;;;;9.85;3.95;;;;;;;42.80;16.74;98647.66;5114936;28;19918;-49
2023/06/01 10:02:07;;;;;;;8.52;3.85;;;;;;;42.57;16.74;98643.69;5097077;28;20443;-49
2023/06/01 10:04:37;;;;;;;7.55;3.70;;;;;;;42.52;17.12;98632.34;5113558;28;20042;-49
2023/06/01 10:07:04;;;;;;;16.35;4.68;;;;;;;42.24;17.93;98635.09;5114773;28;20030;-49
2023/06/01 10:09:33;;;;;;;97.70;8.77;;;;;;;41.95;17.75;98645.69;5113512;28;20027;-49
2023/06/01 10:12:01;;;;;;;7.00;4.03;;;;;;;42.14;17.83;98641.53;5113350;28;20019;-49
2023/06/01 10:14:27;;;;;;;14.82;3.90;;;;;;;42.18;17.71;98644.22;5114511;28;20019;-49
2023/06/01 10:16:53;;;;;;;8.55;3.53;;;;;;;41.66;17.79;98629.50;5114589;28;20027;-49
2023/06/01 10:19:22;;;;;;;13.98;4.57;;;;;;;41.00;18.51;98643.50;5114516;28;20076;-49
2023/06/01 10:21:49;;;;;;;13.73;3.80;;;;;;;41.26;18.25;98640.13;5113140;28;20024;-49
2023/06/01 10:24:19;;;;;;;15.85;4.53;;;;;;;41.04;18.35;98623.00;5096556;28;20027;-49
2023/06/01 10:27:15;;;;;;;10.00;3.50;;;;;;;41.28;18.20;98636.97;5114411;28;20548;-49
2023/06/01 10:29:44;;;;;;;7.85;3.53;;;;;;;41.88;17.88;98640.28;5114836;28;20452;-49
2023/06/01 10:32:48;;;;;;;8.30;3.50;;;;;;;42.19;17.64;98630.03;5096172;28;20027;-49
2023/06/01 10:35:40;;;;;;;5.13;3.08;;;;;;;41.95;17.66;98629.13;5109497;28;20496;-49
2023/06/01 10:38:06;;;;;;;6.78;3.25;;;;;;;41.89;17.85;98630.78;5072184;28;20047;-49
2023/06/01 10:40:38;;;;;;;9.05;3.70;;;;;;;41.68;17.91;98627.13;5112820;28;20485;-49
2023/06/01 10:43:05;;;;;;;4.85;3.30;;;;;;;41.49;17.83;98617.47;5114123;28;20020;-49
2023/06/01 10:45:34;;;;;;;6.70;3.83;;;;;;;41.17;18.36;98617.78;5114036;28;20050;-49
2023/06/01 10:48:01;;;;;;;6.18;3.42;;;;;;;41.12;18.35;98612.72;5112680;28;20031;-49
2023/06/01 10:50:27;;;;;;;5.53;3.40;;;;;;;41.42;18.11;98603.75;5113988;28;20047;-49
2023/06/01 10:52:56;;;;;;;7.93;3.72;;;;;;;41.64;17.81;98607.09;5113885;28;20518;-49
2023/06/01 10:55:24;;;;;;;5.00;3.00;;;;;;;41.36;18.11;98608.16;5113783;28;20068;-49
2023/06/01 10:57:50;;;;;;;5.22;3.38;;;;;;;41.28;18.44;98604.69;5113774;28;20110;-49
2023/06/01 11:00:22;;;;;;;6.45;3.60;;;;;;;41.30;18.44;98593.28;5112577;28;20165;-50
2023/06/01 11:03:04;;;;;;;11.38;3.67;;;;;;;41.51;17.36;98595.00;5113642;28;20516;-49
2023/06/01 11:05:43;;;;;;;8.77;3.55;;;;;;;41.64;16.58;98592.53;5095459;28;20036;-49
2023/06/01 11:08:21;;;;;;;18.48;3.83;;;;;;;41.55;17.28;98597.72;5113678;28;20024;-49
2023/06/01 11:10:53;;;;;;;11.75;3.97;;;;;;;41.09;17.60;98586.78;5113819;28;20055;-48
2023/06/01 11:13:33;;;;;;;16.67;3.78;;;;;;;40.86;17.72;98590.13;5113402;28;20036;-49
2023/06/01 11:16:13;;;;;;;8.20;3.63;;;;;;;41.16;16.92;98591.41;5113335;28;20393;-48
2023/06/01 11:18:49;;;;;;;13.13;4.22;;;;;;;41.22;17.31;98584.31;5113492;28;20020;-49
2023/06/01 11:21:17;;;;;;;14.45;4.50;;;;;;;40.99;17.03;98587.66;5113399;28;20030;-49
2023/06/01 11:23:45;;;;;;;10.52;4.07;;;;;;;40.85;17.60;98579.53;5111888;28;20019;-49
2023/06/01 11:26:17;;;;;;;15.00;4.75;;;;;;;40.91;17.30;98583.38;5113262;28;20054;-49
2023/06/01 11:28:43;;;;;;;8.40;3.35;;;;;;;40.62;17.06;98580.09;5113214;28;20538;-49
2023/06/01 11:31:11;;;;;;;12.55;4.22;;;;;;;40.74;17.26;98576.88;5111832;28;20033;-49
2023/06/01 11:33:40;;;;;;;13.57;4.47;;;;;;;41.01;17.06;98585.28;5113049;28;20497;-49